Topmost, Kentucky
Current Conditions -  °F | °C
As of 5:35 PM on Friday 19 Dec 2014 (Local Time) from KPBX Reporting Station
Clear Clear  
Wind Chill: 24°   Ceiling: Unl
Heat Index: 31°   Visibility: 10mi
Dew Point: 23°   Wind: 7mph
Humidity: 72%   Direction: 360°N
Pressure: 30.22"   Gusts: NA
Location:  37.36°N, 82.79°W
Report Text: KPBX 192235Z AUTO 36006KT 10SM CLR 00/M05 A3022 RMK AO2 T10051050
Loading
Personal Weather Stations






























Interactive Weather Map New forecast layout! Learn more

10-Day Weather Forecast

Advertisements
Track Severe Weather on mobile